Weather observations for the past three days for
Phillips / Price County
Imperial (Metric)
Date Time (cdt) Wind (mph) Vis. (mi.) Weather Sky Cond. Temperature (ºF) Relative Humidity Wind Chill (°F) Heat Index (°F) Pressure Precipitation (in)
Air Dwpt 6 hour altimeter (in) sea level (mb) 1 hr 3 hr 6 hr
Max. Min.
07 15:15 W 5 10.00 Mostly Cloudy BKN085 49.3 19.4 31% 48 29.8 0.0
07 14:55 SW 6 G 16 10.00 Mostly Cloudy BKN080 48 19.6 32% 46 29.81 0.0
07 14:35 NW 3 10.00 Overcast OVC080 47.1 18.7 32% 29.81 0.0
07 14:15 SW 5 10.00 Mostly Cloudy BKN070 BKN085 47.7 20.8 35% 46 29.81 0.0
07 13:55 NW 6 10.00 Overcast BKN070 OVC085 45.7 18.9 34% 43 29.82 0.0
07 13:35 W 10 G 16 10.00 Mostly Cloudy SCT070 BKN080 46.8 20.3 35% 42 29.82 0.0
07 13:15 NW 5 10.00 Overcast OVC080 46.9 19.2 33% 45 29.82 0.0
07 12:55 NW 6 10.00 Overcast SCT070 OVC080 45.1 18.9 46.2 35.1 35% 43 29.83 0.0
07 12:35 NW 5 10.00 Overcast BKN060 OVC080 43.9 19 37% 42 29.83 0.0
07 12:15 NW 5 10.00 Overcast SCT060 OVC080 43.3 20.8 41% 41 29.84 0.0
07 11:55 W 5 10.00 Overcast BKN060 OVC080 42.6 20.3 41% 40 29.85 0.0
07 11:35 SW 7 10.00 Overcast SCT060 OVC070 43 21.2 42% 39 29.85 0.0
07 11:15 W 6 10.00 Overcast BKN050 BKN065 OVC075 43.3 21.2 41% 40 29.85 0.0
07 10:55 SW 7 10.00 Overcast SCT050 OVC075 41.5 22.5 47% 38 29.86 0.0
07 10:35 SW 12 G 17 10.00 Mostly Cloudy SCT048 SCT065 BKN070 41.7 23.4 48% 36 29.86 0.0
07 10:15 W 9 10.00 Mostly Cloudy SCT044 BKN060 BKN075 40.3 23.4 51% 35 29.86 0.0
07 09:55 SW 7 10.00 Partly Cloudy SCT039 SCT048 SCT060 41 25.3 54% 37 29.87 0.0
07 09:35 W 6 10.00 Partly Cloudy SCT075 41.4 26.8 56% 38 29.87 0.0
07 09:15 W 5 10.00 Overcast OVC075 39.2 25.9 59% 36 29.88 0.0
07 08:55 NW 3 10.00 Overcast OVC075 38.3 26.2 62% 29.88 0.0
07 08:35 W 3 10.00 Overcast OVC075 37.6 26.8 65% 29.88 0.0
07 08:15 SW 5 10.00 Overcast OVC075 36.9 26.6 66% 34 29.88 0.0
07 07:55 Calm 10.00 Overcast OVC075 36.1 26.2 67% 29.88 0.0
07 07:35 W 3 10.00 Overcast OVC075 35.6 25.7 67% 29.88 0.0
07 07:15 SW 6 10.00 Overcast OVC065 35.1 25.7 69% 31 29.87 0.0
07 06:55 W 3 10.00 Overcast OVC065 35.1 25.5 36.5 35.1 68% 29.87 0.0
07 06:35 W 3 10.00 Overcast OVC055 35.2 25.2 67% 29.87 0.0
07 06:15 W 6 10.00 Overcast OVC055 35.6 25.2 66% 31 29.87 0.0
07 05:55 SW 8 10.00 Overcast OVC055 35.6 25.3 66% 30 29.87 0.0
07 05:35 SW 6 10.00 Overcast OVC055 35.6 25.7 67% 31 29.87 0.0
07 05:15 SW 6 10.00 Overcast OVC055 35.4 24.8 65% 31 29.87 0.0
07 04:55 W 5 10.00 Overcast OVC055 35.4 24.8 65% 32 29.87 0.0
07 04:35 W 6 10.00 Overcast OVC055 35.2 24.6 65% 31 29.87 0.0
07 04:15 W 3 10.00 Overcast OVC055 35.1 24.6 66% 29.87 0.0
07 03:55 Calm 10.00 Overcast OVC055 35.2 24.4 65% 29.87 0.0
07 03:35 Calm 10.00 Overcast OVC055 35.1 24.4 65% 29.88 0.0
07 03:15 SW 3 10.00 Overcast OVC055 35.4 24.1 63% 29.88 0.0
07 02:55 W 3 10.00 Overcast OVC055 35.6 23.9 62% 29.88 0.0
07 02:35 W 3 10.00 Overcast OVC055 35.6 23.9 62% 29.88 0.0
07 02:15 SW 3 10.00 Overcast OVC055 36 23.9 62% 29.89 0.0
07 01:55 SW 5 10.00 Overcast OVC055 36.3 23.5 60% 33 29.89 0.0
07 01:35 SW 5 10.00 Overcast OVC055 36.5 23.5 59% 33 29.9 0.0
07 01:15 SW 3 10.00 Overcast OVC055 36.5 23.4 59% 29.9 0.0
07 00:55 W 3 10.00 Overcast OVC055 36.5 23.2 39.7 36.5 59% 29.91 0.0
07 00:35 W 3 10.00 Overcast OVC055 36.9 23 57% 29.91 0.0
07 00:20 W 3 10.00 Overcast OVC055 36.9 23 57% 29.91 0.0
06 23:55 W 3 10.00 Overcast OVC055 37 23.4 58% 29.92 0.0
06 23:35 W 5 10.00 Overcast OVC055 37.4 23 56% 34 29.92 0.0
06 23:15 W 3 10.00 Overcast OVC055 37.6 23.2 56% 29.92 0.0
06 22:55 W 5 10.00 Overcast OVC055 37.8 23.4 56% 35 29.92 0.0
06 22:35 W 5 10.00 Overcast OVC055 37.9 23.5 56% 35 29.92 0.0
06 22:15 W 3 10.00 Overcast OVC055 38.3 23.4 55% 29.93 0.0
06 21:55 Calm 10.00 Overcast OVC055 38.3 23.2 55% 29.92 0.0
06 21:35 W 3 10.00 Overcast OVC055 38.5 23 54% 29.92 0.0
06 21:15 W 3 10.00 Overcast OVC055 38.7 23 53% 29.92 0.0
06 20:55 W 3 10.00 Overcast SCT049 OVC055 39 23 53% 29.92 0.0
06 20:35 Calm 10.00 Overcast SCT049 OVC055 39.2 23 52% 29.92 0.0
06 20:15 W 3 10.00 Overcast SCT049 OVC055 39.2 23.2 53% 29.92 0.0
06 19:55 W 3 10.00 Overcast SCT049 OVC055 39.4 22.6 51% 29.92 0.0
06 19:35 W 3 10.00 Overcast OVC055 39.7 22.3 50% 29.91 0.0
06 19:15 W 6 10.00 Overcast OVC055 39.7 21.9 49% 36 29.92 0.0
06 18:55 W 6 10.00 Overcast OVC055 39.7 21.6 40.5 39.2 48% 36 29.92 0.0
06 18:35 NW 6 10.00 Overcast OVC049 39.7 21.2 47% 36 29.92 0.0
06 18:15 W 3 10.00 Overcast OVC049 39.9 21.9 49% 29.92 0.0
06 17:55 NW 8 10.00 Overcast OVC049 39.7 21.7 49% 35 29.92 0.0
06 17:35 NW 5 10.00 Overcast OVC049 39.6 21.6 49% 37 29.92 0.0
06 17:15 NW 6 10.00 Overcast OVC049 39.6 21.4 48% 36 29.92 0.0
06 16:55 W 7 10.00 Overcast OVC047 39.7 21.9 49% 35 29.92 0.0
06 16:35 NW 3 10.00 Overcast OVC047 39.2 22.1 50% 29.92 0.0
06 16:15 NW 7 10.00 Overcast OVC045 39.4 22.1 50% 35 29.92 0.0
06 15:55 NW 12 G 20 10.00 Overcast OVC045 39.7 22.6 50% 33 29.92 0.0
06 15:35 W 7 G 17 10.00 Overcast OVC045 39.6 21.9 49% 35 29.92 0.0
06 15:15 SW 10 10.00 Overcast OVC047 39.9 22.1 49% 34 29.92 0.0
06 14:55 NW 10 10.00 Overcast OVC049 39.6 21.2 48% 34 29.92 0.0
06 14:35 W 7 G 17 10.00 Overcast OVC049 39.6 21.4 48% 35 29.92 0.0
06 14:15 W 8 10.00 Overcast OVC047 40.1 21.2 47% 35 29.92 0.0
06 13:55 W 7 10.00 Overcast OVC049 40.5 21.9 48% 36 29.92 0.0
06 13:35 NW 9 10.00 Overcast OVC049 40.1 21.7 48% 35 29.92 0.0
06 13:15 W 7 10.00 Overcast OVC049 40.1 21.6 48% 36 29.92 0.0
06 12:55 NW 8 10.00 Overcast OVC049 39.7 20.5 40.1 32.9 46% 35 29.92 0.0
06 12:35 W 9 10.00 Overcast OVC049 39.7 20.5 46% 34 29.92 0.0
06 12:15 W 6 10.00 Overcast OVC049 39.4 20.3 46% 36 29.93 0.0
06 11:55 W 8 10.00 Overcast OVC049 39.7 21 47% 35 29.92 0.0
06 11:35 W 8 10.00 Overcast OVC049 38.8 19.8 46% 34 29.92 0.0
06 11:15 W 8 G 20 10.00 Overcast OVC049 39.4 19.6 45% 34 29.92 0.0
06 10:55 NW 8 G 22 10.00 Overcast OVC049 39.7 19.6 44% 35 29.92 0.0
06 10:35 NW 8 10.00 Overcast OVC049 38.3 18.7 45% 33 29.92 0.0
06 10:15 NW 6 G 16 10.00 Overcast OVC049 37.6 19.8 49% 34 29.92 0.0
06 09:55 NW 8 G 16 10.00 Overcast OVC049 36.7 18.1 47% 31 29.92 0.0
06 09:35 NW 6 G 16 10.00 Overcast OVC049 37 18.5 47% 33 29.92 0.0
06 09:15 NW 12 G 17 10.00 Mostly Cloudy BKN049 37.6 17.4 44% 31 29.92 0.0
06 08:55 NW 9 G 17 10.00 Mostly Cloudy BKN047 35.2 18 49% 29 29.92 0.0
06 08:35 NW 9 10.00 Overcast SCT038 BKN043 OVC049 34.3 20.8 58% 28 29.91 0.0
06 08:15 NW 9 10.00 Overcast OVC040 34 21 59% 27 29.91 0.0
06 07:55 NW 5 10.00 Overcast OVC044 34.2 21.6 60% 31 29.91 0.0
06 07:35 Calm 10.00 Overcast OVC042 33.8 22.1 62% 29.91 0.0
06 07:15 W 3 10.00 Overcast OVC040 33.3 22.5 65% 29.89 0.0
06 06:55 Calm 10.00 Overcast OVC042 32.9 22.8 35.6 32 66% 29.89 0.0
06 06:35 Calm 10.00 Overcast OVC040 32.9 22.8 66% 29.88 0.0
06 06:15 Calm 10.00 Overcast OVC040 32.5 22.3 66% 29.88 0.0
06 05:55 W 3 10.00 Overcast OVC044 32.4 22.5 67% 29.88 0.0
06 05:35 Calm 10.00 Overcast OVC044 32.4 22.5 67% 29.88 0.0
06 05:15 Calm 10.00 Overcast OVC046 32.5 22.3 66% 29.88 0.0
06 04:55 Calm 10.00 Overcast OVC046 32.2 21.6 65% 29.88 0.0
06 04:35 Calm 10.00 Overcast BKN046 OVC060 32 21.6 65% 29.87 0.0
06 04:15 Calm 10.00 Overcast OVC060 32.4 21.9 65% 29.87 0.0
06 03:55 NW 5 10.00 Overcast OVC060 33.1 22.1 64% 29 29.87 0.0
06 03:35 NW 3 10.00 Overcast OVC060 33.8 22.3 63% 29.86 0.0
06 03:15 NW 3 10.00 Overcast OVC060 34.3 22.1 61% 29.86 0.0
06 02:55 NW 6 10.00 Overcast OVC060 34.9 22.3 60% 30 29.86 0.0
06 02:35 Calm 10.00 Overcast OVC060 35.1 22.6 61% 29.86 0.0
06 02:15 NW 3 10.00 Overcast OVC060 35.2 22.5 60% 29.86 0.0
06 01:55 Calm 10.00 Overcast OVC060 35.4 23 61% 29.86 0.0
06 01:35 NW 3 10.00 Overcast OVC060 35.6 23 60% 29.86 0.0
06 01:15 Calm 10.00 Overcast OVC060 35.6 23.5 62% 29.85 0.0
06 00:55 Calm 10.00 Overcast OVC060 35.6 23.5 42.1 35.6 62% 29.85 0.0
06 00:35 Calm 10.00 Overcast OVC060 35.8 23.4 61% 29.85 0.0
06 00:15 Calm 10.00 Overcast OVC060 36.1 23.5 60% 29.85 0.0
05 23:55 Calm 10.00 Overcast OVC060 36.3 23.4 59% 29.84 0.0
05 23:35 Calm 10.00 Overcast OVC060 36.5 23.5 59% 29.85 0.0
05 23:15 Calm 10.00 Overcast OVC060 37 23.4 58% 29.84 0.0
05 22:55 N 3 10.00 Overcast OVC060 37.4 23.4 57% 29.85 0.0
05 22:35 N 5 10.00 Overcast OVC060 37.4 23.2 57% 34 29.84 0.0
05 22:15 N 3 10.00 Overcast OVC060 37.6 23.2 56% 29.83 0.0
05 21:55 NW 5 10.00 Overcast OVC070 37.8 23 55% 35 29.82 0.0
05 21:35 N 3 10.00 Mostly Cloudy BKN075 37.8 22.8 55% 29.82 0.0
05 21:15 NW 3 10.00 Mostly Cloudy BKN075 38.3 23 54% 29.82 0.0
05 20:55 N 3 10.00 Overcast SCT060 OVC075 39.6 23 52% 29.81 0.0
05 20:35 NW 5 10.00 Overcast BKN050 OVC075 40.5 22.8 49% 38 29.8 0.0
05 20:15 NW 8 10.00 Overcast OVC050 40.6 23.2 50% 36 29.79 0.0
05 19:55 Calm 10.00 Overcast OVC050 41 22.8 48% 29.79 0.0
05 19:35 NW 5 10.00 Overcast BKN060 OVC070 41.5 22.1 46% 39 29.79 0.0
05 19:15 NW 5 10.00 Overcast SCT060 OVC070 41.9 21.7 45% 40 29.78 0.0
05 18:55 NW 7 10.00 Overcast BKN070 OVC085 42.1 21.4 44.8 38.5 44% 38 29.78 0.0
05 18:35 NW 8 10.00 Overcast SCT060 OVC070 43.3 21.4 42% 39 29.78 0.0
05 18:15 W 8 10.00 Overcast BKN060 OVC070 42.3 20.7 42% 38 29.78 0.0
05 17:55 W 6 10.00 Overcast BKN060 OVC070 42.6 20.5 41% 40 29.78 0.0
05 17:35 NW 7 10.00 Overcast BKN060 OVC070 42.8 21.9 44% 39 29.79 0.0
05 17:15 NW 7 10.00 Overcast SCT050 OVC070 42.1 21.2 43% 38 29.79 0.0
05 16:55 NW 9 10.00 Overcast SCT060 OVC070 41.9 21.7 45% 37 29.79 0.0
05 16:35 W 7 10.00 Overcast SCT050 OVC060 41.5 21.6 45% 38 29.79 0.0
05 16:15 NW 13 G 21 10.00 Overcast OVC060 41.2 20.7 44% 35 29.79 0.0
05 15:55 W 8 G 17 10.00 Overcast OVC060 41.4 20.7 44% 37 29.79 0.0
05 15:35 W 7 G 18 10.00 Overcast OVC050 41.2 21 45% 37 29.79 0.0
05 15:15 W 6 G 18 10.00 Overcast OVC050 41.2 20.5 44% 38 29.79 0.0
05 14:55 W 8 10.00 Overcast OVC050 40.8 21 45% 36 29.79 0.0
05 14:35 W 8 10.00 Overcast OVC050 42.3 22.1 45% 38 29.78 0.0
05 14:15 W 8 G 22 10.00 Overcast OVC050 39.7 20.1 45% 35 29.78 0.0
05 13:55 NW 8 G 16 10.00 Overcast OVC050 40.1 20.3 45% 35 29.78 0.0
05 13:35 W 8 G 17 10.00 Overcast BKN049 OVC055 40.5 21.7 47% 36 29.77 0.0
05 13:15 W 10 G 23 10.00 Overcast BKN046 OVC055 40.8 22.5 48% 35 29.77 0.0
05 12:55 NW 10 G 24 10.00 Overcast BKN046 OVC055 38.7 21.7 41.5 32.5 51% 32 29.77 0.0
05 12:35 W 8 G 22 10.00 Overcast OVC050 39.2 20.8 48% 34 29.76 0.0
05 12:15 W 10 G 18 10.00 Overcast OVC050 39.9 20.5 46% 34 29.75 0.0
05 11:55 NW 15 G 20 10.00 Overcast OVC049 39.9 19.6 44% 32 29.75 0.0
05 11:35 NW 7 G 23 10.00 Overcast OVC049 39.2 18.5 43% 35 29.75 0.0
05 11:15 W 8 10.00 Overcast OVC049 40.8 20.1 44% 36 29.73 0.0
05 10:55 W 8 10.00 Overcast BKN049 OVC065 40.5 20.8 45% 36 29.73 0.0
05 10:35 NW 14 G 18 10.00 Mostly Cloudy BKN055 41 20.3 44% 34 29.72 0.0
05 10:15 W 9 10.00 Partly Cloudy SCT041 SCT049 40.3 22.6 49% 35 29.73 0.0
05 09:55 W 8 10.00 Mostly Cloudy BKN038 BKN047 38.5 23.5 55% 33 29.73 0.0
05 09:35 W 8 10.00 Partly Cloudy SCT036 39.6 24.4 55% 35 29.73 0.0
05 09:15 NW 10 G 16 10.00 Partly Cloudy BKN034 SCT041 36.9 24.1 60% 30 29.72 0.0
05 08:55 W 6 G 17 10.00 Mostly Cloudy BKN034 BKN039 BKN045 36.1 23.4 60% 32 29.72 0.0
05 08:35 NW 10 G 16 10.00 Partly Cloudy SCT034 SCT039 SCT045 35.8 23.2 60% 29 29.71 0.0
05 08:15 W 5 10.00 Partly Cloudy SCT038 36.1 26.1 67% 33 29.7 0.0
05 07:55 W 7 10.00 Overcast SCT031 OVC038 34.9 25.7 69% 30 29.69 0.0
05 07:35 W 3 10.00 Mostly Cloudy BKN033 34.2 25.7 71% 29.69 0.0
05 07:15 W 9 10.00 Mostly Cloudy BKN033 33.8 25.2 71% 27 29.68 0.0
05 06:55 W 3 10.00 Partly Cloudy SCT035 32.5 24.4 37.2 31.5 72% 29.67 0.0
05 06:35 W 3 10.00 Fair CLR 32 23.9 72% 29.66 0.0
05 06:15 Calm 10.00 Partly Cloudy SCT040 31.6 23.9 73% 29.66 0.0
05 05:55 W 3 10.00 Partly Cloudy SCT040 32 23.9 72% 29.65 0.0
05 05:35 Calm 10.00 Fair CLR 31.6 23.9 73% 29.65 0.0
05 05:15 W 3 10.00 Fair CLR 32 23.4 70% 29.65 0.0
05 04:55 Calm 10.00 Fair CLR 32.5 23.5 69% 29.64 0.0
05 04:35 W 5 10.00 Partly Cloudy SCT046 33.3 23.5 68% 30 29.63 0.0
05 04:15 Calm 10.00 Partly Cloudy SCT046 32.9 23.9 70% 29.63 0.0
05 03:55 Calm 10.00 Partly Cloudy SCT046 32.7 23.5 69% 29.62 0.0
05 03:35 Calm 10.00 Fair CLR 33.3 23.7 68% 29.62 0.0
05 03:15 W 3 10.00 Fair CLR 34.3 23.5 65% 29.62 0.0
05 02:55 Calm 10.00 Fair CLR 34 23.2 65% 29.62 0.0
05 02:35 Calm 10.00 Fair CLR 34.7 23 62% 29.62 0.0
05 02:15 Calm 10.00 Partly Cloudy SCT070 35.2 23.4 62% 29.63 0.0
05 01:55 Calm 10.00 Mostly Cloudy BKN070 35.6 23.9 62% 29.62 0.0
05 01:35 W 3 10.00 Mostly Cloudy BKN070 36.3 23.4 59% 29.63 0.0
05 01:15 Calm 10.00 Partly Cloudy SCT070 36.5 23 58% 29.63 0.0
05 00:55 Calm 10.00 Fair CLR 37.4 23 50.5 37.4 56% 29.62 0.0
05 00:35 W 3 10.00 Fair CLR 37.9 22.8 55% 29.62 0.0
05 00:15 W 3 10.00 Fair CLR 38.7 22.6 53% 29.62 0.0
04 23:55 W 3 10.00 Partly Cloudy SCT070 39.2 22.5 51% 29.61 0.0
04 23:35 NW 5 10.00 Partly Cloudy SCT065 39.4 22.3 50% 37 29.61 0.0
04 23:15 W 3 10.00 Partly Cloudy SCT065 39.6 22.1 50% 29.61 0.0
04 22:55 NW 6 10.00 Partly Cloudy SCT065 40.3 21.7 48% 37 29.61 0.0
04 22:35 NW 8 10.00 Partly Cloudy SCT065 40.8 21.6 46% 36 29.61 0.0
04 22:15 NW 10 G 16 10.00 Partly Cloudy SCT065 41.7 22.5 46% 36 29.61 0.0
04 21:55 NW 9 G 22 10.00 Overcast OVC065 42.8 23.5 47% 38 29.59 0.0
04 21:35 W 9 G 21 10.00 Overcast OVC065 43.3 24.4 47% 39 29.59 0.0
04 21:15 NW 7 G 22 10.00 Overcast OVC065 43.9 23.9 45% 40 29.58 0.0
04 20:55 NW 13 G 21 10.00 Overcast OVC065 44.8 25 46% 39 29.56 0.0
04 20:35 NW 14 G 20 10.00 Mostly Cloudy BKN065 45.7 26.6 47% 40 29.55 0.0
04 20:15 W 7 G 18 10.00 Mostly Cloudy BKN065 46.9 25.9 44% 44 29.54 0.0
04 19:55 NW 12 G 24 10.00 Mostly Cloudy BKN065 47.5 26.4 44% 43 29.53 0.0
04 19:35 NW 12 G 20 10.00 Overcast SCT065 OVC070 48.7 27 43% 44 29.52 0.0
04 19:15 NW 12 G 18 10.00 Overcast OVC065 49.5 27.7 43% 45 29.51 0.0
04 18:55 NW 9 G 21 10.00 Mostly Cloudy BKN065 50.2 27.5 61.5 50.2 42% 29.5 0.0
04 18:35 W 12 G 21 10.00 Partly Cloudy SCT065 51.6 27.3 39% 29.49 0.0
04 18:15 W 12 G 21 10.00 Mostly Cloudy BKN065 54 28.9 38% 29.48 0.0
04 17:55 NW 12 G 24 10.00 Partly Cloudy SCT065 54.7 28.8 37% 29.47 0.0
04 17:35 NW 15 G 23 10.00 Partly Cloudy SCT065 SCT075 54.1 29.1 38% 29.45 0.0
04 17:15 NW 16 G 28 10.00 Partly Cloudy SCT070 56.8 30 36% 29.44 0.0
04 16:55 NW 12 G 23 10.00 Partly Cloudy SCT070 57.7 31.3 37% 29.43 0.0
04 16:35 W 10 G 22 10.00 Partly Cloudy SCT070 SCT090 58.8 31.8 36% 29.42 0.0
04 16:15 W 16 G 30 10.00 Mostly Cloudy BKN070 BKN090 59.7 30.2 33% 29.41 0.0
04 15:55 W 12 G 20 10.00 Mostly Cloudy SCT065 BKN080 59.7 32.2 35% 29.4 0.0
04 15:35 W 14 G 22 10.00 Partly Cloudy SCT065 SCT080 SCT120 60.1 32 35% 29.4 0.0
Date Time (cdt) Wind (mph) Vis. (mi.) Weather Sky Cond. Air Dwpt Max. Min. Relative Humidity Wind Chill (°F) Heat Index (°F) altimeter (in) sea level (mb) 1 hr 3 hr 6 hr
6 hour
Temperature (ºF) Pressure Precipitation (in)